Flugplatz Memmingen Allgau

Bericht für EDJA

vom 25.10. um 17:20 UTC

Wind 3 kt aus 170°

Sichtweite 10 km oder mehr

gute Sicht, keine Wolken < 5000 ft, keine CB, keine Wettererscheinungen (CAVOK)

Temperatur 6.0°C

Taupunkt 5.0°C

Luftfeuchtigkeit 93%

Luftdruck 1021 hPa

EDJA 251720Z 17003KT CAVOK 06/05 Q1021
Keine Prognose (TAF) verfügbar.
Impressum